sensor_id;sensor_type;location;lat;lon;timestamp;P1;durP1;ratioP1;P2;durP2;ratioP2
29466;SDS011;60968;37.490;-122.288;2022-11-15T00:02:33;5.87;;;1.00;;
29466;SDS011;60968;37.490;-122.288;2022-11-15T00:05:35;4.40;;;1.40;;
29466;SDS011;60968;37.490;-122.288;2022-11-15T00:08:36;2.30;;;1.20;;
29466;SDS011;60968;37.490;-122.288;2022-11-15T00:11:37;3.87;;;1.47;;
29466;SDS011;60968;37.490;-122.288;2022-11-15T00:14:38;5.67;;;1.30;;
29466;SDS011;60968;37.490;-122.288;2022-11-15T00:17:39;7.23;;;1.50;;
29466;SDS011;60968;37.490;-122.288;2022-11-15T00:20:40;4.97;;;1.30;;
29466;SDS011;60968;37.490;-122.288;2022-11-15T00:23:44;7.47;;;1.90;;
29466;SDS011;60968;37.490;-122.288;2022-11-15T00:26:45;6.60;;;1.93;;
29466;SDS011;60968;37.490;-122.288;2022-11-15T00:29:47;6.63;;;2.40;;
29466;SDS011;60968;37.490;-122.288;2022-11-15T00:32:50;8.47;;;3.27;;
29466;SDS011;60968;37.490;-122.288;2022-11-15T00:35:51;7.97;;;2.97;;
29466;SDS011;60968;37.490;-122.288;2022-11-15T00:38:59;7.83;;;3.10;;
29466;SDS011;60968;37.490;-122.288;2022-11-15T00:42:01;7.70;;;3.40;;
29466;SDS011;60968;37.490;-122.288;2022-11-15T00:45:02;9.03;;;2.93;;
29466;SDS011;60968;37.490;-122.288;2022-11-15T00:48:05;7.40;;;2.70;;
29466;SDS011;60968;37.490;-122.288;2022-11-15T00:51:06;6.43;;;2.97;;
29466;SDS011;60968;37.490;-122.288;2022-11-15T00:54:07;6.77;;;2.60;;
29466;SDS011;60968;37.490;-122.288;2022-11-15T00:57:08;9.97;;;2.60;;
29466;SDS011;60968;37.490;-122.288;2022-11-15T01:00:09;7.57;;;2.97;;
29466;SDS011;60968;37.490;-122.288;2022-11-15T01:03:11;6.57;;;3.20;;
29466;SDS011;60968;37.490;-122.288;2022-11-15T01:06:12;4.23;;;2.60;;
29466;SDS011;60968;37.490;-122.288;2022-11-15T01:09:13;8.43;;;3.10;;
29466;SDS011;60968;37.490;-122.288;2022-11-15T01:12:14;6.13;;;2.83;;
29466;SDS011;60968;37.490;-122.288;2022-11-15T01:15:15;5.33;;;2.57;;
29466;SDS011;60968;37.490;-122.288;2022-11-15T01:18:15;7.23;;;2.83;;
29466;SDS011;60968;37.490;-122.288;2022-11-15T01:21:17;7.07;;;3.03;;
29466;SDS011;60968;37.490;-122.288;2022-11-15T01:24:19;4.33;;;2.20;;
29466;SDS011;60968;37.490;-122.288;2022-11-15T01:27:20;8.53;;;2.50;;
29466;SDS011;60968;37.490;-122.288;2022-11-15T01:30:21;6.73;;;2.70;;
29466;SDS011;60968;37.490;-122.288;2022-11-15T01:33:22;9.13;;;3.00;;
29466;SDS011;60968;37.490;-122.288;2022-11-15T01:36:23;4.73;;;2.03;;
29466;SDS011;60968;37.490;-122.288;2022-11-15T01:39:25;7.90;;;3.03;;
29466;SDS011;60968;37.490;-122.288;2022-11-15T01:42:26;5.50;;;2.70;;
29466;SDS011;60968;37.490;-122.288;2022-11-15T01:45:27;6.20;;;3.03;;
29466;SDS011;60968;37.490;-122.288;2022-11-15T01:48:31;6.97;;;3.07;;
29466;SDS011;60968;37.490;-122.288;2022-11-15T01:51:34;8.13;;;3.00;;
29466;SDS011;60968;37.490;-122.288;2022-11-15T01:54:35;7.07;;;2.70;;
29466;SDS011;60968;37.490;-122.288;2022-11-15T01:57:37;7.93;;;2.70;;
29466;SDS011;60968;37.490;-122.288;2022-11-15T02:00:41;8.47;;;3.13;;
29466;SDS011;60968;37.490;-122.288;2022-11-15T02:03:56;6.97;;;2.90;;
29466;SDS011;60968;37.490;-122.288;2022-11-15T02:07:21;6.07;;;3.13;;
29466;SDS011;60968;37.490;-122.288;2022-11-15T02:10:24;7.17;;;3.03;;
29466;SDS011;60968;37.490;-122.288;2022-11-15T02:13:25;9.60;;;3.00;;
29466;SDS011;60968;37.490;-122.288;2022-11-15T02:22:51;6.93;;;3.43;;
29466;SDS011;60968;37.490;-122.288;2022-11-15T02:26:11;5.63;;;2.93;;
29466;SDS011;60968;37.490;-122.288;2022-11-15T02:32:29;7.20;;;2.70;;
29466;SDS011;60968;37.490;-122.288;2022-11-15T02:35:57;6.63;;;2.80;;
29466;SDS011;60968;37.490;-122.288;2022-11-15T02:42:25;6.17;;;2.83;;
29466;SDS011;60968;37.490;-122.288;2022-11-15T02:45:39;7.93;;;3.37;;
29466;SDS011;60968;37.490;-122.288;2022-11-15T02:48:46;6.07;;;3.13;;
29466;SDS011;60968;37.490;-122.288;2022-11-15T02:51:48;5.73;;;3.23;;
29466;SDS011;60968;37.490;-122.288;2022-11-15T02:54:55;6.93;;;3.23;;
29466;SDS011;60968;37.490;-122.288;2022-11-15T03:11:16;5.83;;;3.20;;
29466;SDS011;60968;37.490;-122.288;2022-11-15T03:14:24;9.53;;;3.80;;
29466;SDS011;60968;37.490;-122.288;2022-11-15T03:17:35;8.80;;;4.17;;
29466;SDS011;60968;37.490;-122.288;2022-11-15T03:20:40;9.13;;;4.23;;
29466;SDS011;60968;37.490;-122.288;2022-11-15T03:23:43;11.80;;;4.20;;
29466;SDS011;60968;37.490;-122.288;2022-11-15T03:26:47;7.53;;;4.43;;
29466;SDS011;60968;37.490;-122.288;2022-11-15T03:29:51;9.73;;;4.53;;
29466;SDS011;60968;37.490;-122.288;2022-11-15T03:32:56;9.00;;;4.30;;
29466;SDS011;60968;37.490;-122.288;2022-11-15T03:35:59;12.37;;;4.27;;
29466;SDS011;60968;37.490;-122.288;2022-11-15T03:39:02;8.93;;;4.70;;
29466;SDS011;60968;37.490;-122.288;2022-11-15T03:42:26;8.27;;;4.33;;
29466;SDS011;60968;37.490;-122.288;2022-11-15T03:45:39;9.60;;;4.90;;
29466;SDS011;60968;37.490;-122.288;2022-11-15T03:49:00;9.67;;;4.40;;
29466;SDS011;60968;37.490;-122.288;2022-11-15T03:52:17;11.53;;;5.50;;
29466;SDS011;60968;37.490;-122.288;2022-11-15T03:55:20;14.60;;;5.47;;
29466;SDS011;60968;37.490;-122.288;2022-11-15T03:58:24;11.03;;;5.53;;
29466;SDS011;60968;37.490;-122.288;2022-11-15T04:01:25;11.07;;;5.77;;
29466;SDS011;60968;37.490;-122.288;2022-11-15T04:04:26;9.90;;;5.67;;
29466;SDS011;60968;37.490;-122.288;2022-11-15T04:07:29;13.67;;;5.50;;
29466;SDS011;60968;37.490;-122.288;2022-11-15T04:10:30;10.27;;;5.03;;
29466;SDS011;60968;37.490;-122.288;2022-11-15T04:13:30;10.07;;;5.13;;
29466;SDS011;60968;37.490;-122.288;2022-11-15T04:16:32;10.70;;;5.33;;
29466;SDS011;60968;37.490;-122.288;2022-11-15T04:19:34;9.17;;;5.30;;
29466;SDS011;60968;37.490;-122.288;2022-11-15T04:22:36;11.13;;;5.90;;
29466;SDS011;60968;37.490;-122.288;2022-11-15T04:25:37;10.67;;;6.00;;
29466;SDS011;60968;37.490;-122.288;2022-11-15T04:28:38;10.97;;;6.20;;
29466;SDS011;60968;37.490;-122.288;2022-11-15T04:31:39;9.67;;;5.90;;
29466;SDS011;60968;37.490;-122.288;2022-11-15T04:34:40;11.30;;;6.40;;
29466;SDS011;60968;37.490;-122.288;2022-11-15T04:37:42;14.30;;;7.37;;
29466;SDS011;60968;37.490;-122.288;2022-11-15T04:40:44;9.87;;;6.57;;
29466;SDS011;60968;37.490;-122.288;2022-11-15T04:43:47;10.53;;;6.53;;
29466;SDS011;60968;37.490;-122.288;2022-11-15T04:46:48;12.90;;;7.17;;
29466;SDS011;60968;37.490;-122.288;2022-11-15T04:49:49;14.80;;;6.67;;
29466;SDS011;60968;37.490;-122.288;2022-11-15T04:52:51;11.70;;;6.63;;
29466;SDS011;60968;37.490;-122.288;2022-11-15T04:55:53;13.63;;;6.40;;
29466;SDS011;60968;37.490;-122.288;2022-11-15T04:58:53;10.67;;;6.33;;
29466;SDS011;60968;37.490;-122.288;2022-11-15T05:01:58;15.83;;;7.20;;
29466;SDS011;60968;37.490;-122.288;2022-11-15T05:04:59;12.03;;;7.03;;
29466;SDS011;60968;37.490;-122.288;2022-11-15T05:08:03;11.87;;;7.00;;
29466;SDS011;60968;37.490;-122.288;2022-11-15T05:11:04;16.13;;;7.40;;
29466;SDS011;60968;37.490;-122.288;2022-11-15T05:14:05;15.07;;;7.53;;
29466;SDS011;60968;37.490;-122.288;2022-11-15T05:17:06;13.97;;;7.03;;
29466;SDS011;60968;37.490;-122.288;2022-11-15T05:20:07;9.60;;;6.07;;
29466;SDS011;60968;37.490;-122.288;2022-11-15T05:23:08;14.83;;;7.17;;
29466;SDS011;60968;37.490;-122.288;2022-11-15T05:26:11;10.37;;;6.87;;
29466;SDS011;60968;37.490;-122.288;2022-11-15T05:29:13;13.57;;;7.37;;
29466;SDS011;60968;37.490;-122.288;2022-11-15T05:32:14;15.60;;;8.20;;
29466;SDS011;60968;37.490;-122.288;2022-11-15T05:35:33;12.23;;;7.27;;
29466;SDS011;60968;37.490;-122.288;2022-11-15T05:38:46;11.90;;;6.70;;
29466;SDS011;60968;37.490;-122.288;2022-11-15T05:41:49;14.07;;;7.60;;
29466;SDS011;60968;37.490;-122.288;2022-11-15T05:44:52;10.10;;;6.33;;
29466;SDS011;60968;37.490;-122.288;2022-11-15T05:47:54;12.90;;;6.23;;
29466;SDS011;60968;37.490;-122.288;2022-11-15T05:50:58;10.67;;;7.20;;
29466;SDS011;60968;37.490;-122.288;2022-11-15T05:53:59;10.53;;;5.93;;
29466;SDS011;60968;37.490;-122.288;2022-11-15T05:57:03;11.60;;;6.60;;
29466;SDS011;60968;37.490;-122.288;2022-11-15T06:00:04;15.47;;;6.57;;
29466;SDS011;60968;37.490;-122.288;2022-11-15T06:03:06;11.93;;;6.83;;
29466;SDS011;60968;37.490;-122.288;2022-11-15T06:06:08;13.50;;;6.90;;
29466;SDS011;60968;37.490;-122.288;2022-11-15T06:09:09;15.10;;;6.87;;
29466;SDS011;60968;37.490;-122.288;2022-11-15T06:12:09;14.63;;;7.83;;
29466;SDS011;60968;37.490;-122.288;2022-11-15T06:15:12;10.33;;;6.47;;
29466;SDS011;60968;37.490;-122.288;2022-11-15T06:18:12;11.23;;;6.77;;
29466;SDS011;60968;37.490;-122.288;2022-11-15T06:21:13;13.30;;;6.27;;
29466;SDS011;60968;37.490;-122.288;2022-11-15T06:24:14;11.40;;;6.57;;
29466;SDS011;60968;37.490;-122.288;2022-11-15T06:27:15;12.70;;;6.70;;
29466;SDS011;60968;37.490;-122.288;2022-11-15T06:30:16;10.23;;;6.80;;
29466;SDS011;60968;37.490;-122.288;2022-11-15T06:33:19;12.00;;;5.93;;
29466;SDS011;60968;37.490;-122.288;2022-11-15T06:36:21;12.17;;;6.93;;
29466;SDS011;60968;37.490;-122.288;2022-11-15T06:39:27;14.53;;;7.10;;
29466;SDS011;60968;37.490;-122.288;2022-11-15T06:42:29;14.03;;;6.90;;
29466;SDS011;60968;37.490;-122.288;2022-11-15T06:45:31;12.00;;;6.80;;
29466;SDS011;60968;37.490;-122.288;2022-11-15T06:48:33;15.97;;;7.83;;
29466;SDS011;60968;37.490;-122.288;2022-11-15T06:51:35;11.00;;;7.07;;
29466;SDS011;60968;37.490;-122.288;2022-11-15T06:54:36;15.97;;;7.77;;
29466;SDS011;60968;37.490;-122.288;2022-11-15T06:57:43;12.70;;;7.30;;
29466;SDS011;60968;37.490;-122.288;2022-11-15T07:00:48;12.07;;;7.63;;
29466;SDS011;60968;37.490;-122.288;2022-11-15T07:03:49;11.03;;;7.47;;
29466;SDS011;60968;37.490;-122.288;2022-11-15T07:06:50;12.43;;;7.17;;
29466;SDS011;60968;37.490;-122.288;2022-11-15T07:09:54;16.47;;;8.03;;
29466;SDS011;60968;37.490;-122.288;2022-11-15T07:12:55;14.33;;;8.13;;
29466;SDS011;60968;37.490;-122.288;2022-11-15T07:15:56;13.57;;;7.23;;
29466;SDS011;60968;37.490;-122.288;2022-11-15T07:18:58;12.43;;;7.77;;
29466;SDS011;60968;37.490;-122.288;2022-11-15T07:21:59;14.80;;;8.50;;
29466;SDS011;60968;37.490;-122.288;2022-11-15T07:25:01;12.60;;;8.27;;
29466;SDS011;60968;37.490;-122.288;2022-11-15T07:28:02;13.53;;;8.00;;
29466;SDS011;60968;37.490;-122.288;2022-11-15T07:31:04;13.07;;;7.90;;
29466;SDS011;60968;37.490;-122.288;2022-11-15T07:34:09;12.80;;;8.20;;
29466;SDS011;60968;37.490;-122.288;2022-11-15T07:37:10;14.60;;;8.07;;
29466;SDS011;60968;37.490;-122.288;2022-11-15T07:40:11;17.00;;;8.40;;
29466;SDS011;60968;37.490;-122.288;2022-11-15T07:43:12;13.87;;;8.20;;
29466;SDS011;60968;37.490;-122.288;2022-11-15T07:46:15;16.93;;;8.63;;
29466;SDS011;60968;37.490;-122.288;2022-11-15T07:49:15;14.83;;;8.20;;
29466;SDS011;60968;37.490;-122.288;2022-11-15T07:52:16;15.63;;;8.30;;
29466;SDS011;60968;37.490;-122.288;2022-11-15T07:55:17;15.40;;;8.57;;
29466;SDS011;60968;37.490;-122.288;2022-11-15T07:58:18;14.07;;;8.87;;
29466;SDS011;60968;37.490;-122.288;2022-11-15T08:01:19;19.57;;;9.10;;
29466;SDS011;60968;37.490;-122.288;2022-11-15T08:04:20;14.70;;;9.00;;
29466;SDS011;60968;37.490;-122.288;2022-11-15T08:07:21;16.17;;;9.30;;
29466;SDS011;60968;37.490;-122.288;2022-11-15T08:10:25;14.97;;;9.03;;
29466;SDS011;60968;37.490;-122.288;2022-11-15T08:13:29;25.27;;;10.33;;
29466;SDS011;60968;37.490;-122.288;2022-11-15T08:16:30;15.00;;;9.17;;
29466;SDS011;60968;37.490;-122.288;2022-11-15T08:19:31;16.43;;;9.70;;
29466;SDS011;60968;37.490;-122.288;2022-11-15T08:22:33;15.80;;;9.90;;
29466;SDS011;60968;37.490;-122.288;2022-11-15T08:25:34;23.47;;;10.87;;
29466;SDS011;60968;37.490;-122.288;2022-11-15T08:28:35;23.27;;;11.40;;
29466;SDS011;60968;37.490;-122.288;2022-11-15T08:31:36;17.73;;;10.87;;
29466;SDS011;60968;37.490;-122.288;2022-11-15T08:34:37;19.70;;;11.43;;
29466;SDS011;60968;37.490;-122.288;2022-11-15T08:37:38;16.93;;;10.97;;
29466;SDS011;60968;37.490;-122.288;2022-11-15T08:40:39;19.10;;;11.43;;
29466;SDS011;60968;37.490;-122.288;2022-11-15T08:43:40;17.83;;;10.50;;
29466;SDS011;60968;37.490;-122.288;2022-11-15T08:46:41;17.03;;;9.87;;
29466;SDS011;60968;37.490;-122.288;2022-11-15T08:49:43;16.80;;;9.40;;
29466;SDS011;60968;37.490;-122.288;2022-11-15T08:52:44;14.23;;;8.90;;
29466;SDS011;60968;37.490;-122.288;2022-11-15T08:55:45;17.97;;;8.70;;
29466;SDS011;60968;37.490;-122.288;2022-11-15T08:58:46;14.53;;;8.60;;
29466;SDS011;60968;37.490;-122.288;2022-11-15T09:01:47;17.33;;;9.03;;
29466;SDS011;60968;37.490;-122.288;2022-11-15T09:04:47;15.93;;;7.40;;
29466;SDS011;60968;37.490;-122.288;2022-11-15T09:07:52;15.40;;;8.37;;
29466;SDS011;60968;37.490;-122.288;2022-11-15T09:10:56;13.00;;;7.20;;
29466;SDS011;60968;37.490;-122.288;2022-11-15T09:13:57;12.40;;;7.10;;
29466;SDS011;60968;37.490;-122.288;2022-11-15T09:16:57;12.43;;;7.47;;
29466;SDS011;60968;37.490;-122.288;2022-11-15T09:19:59;14.50;;;6.47;;
29466;SDS011;60968;37.490;-122.288;2022-11-15T09:23:00;12.53;;;5.90;;
29466;SDS011;60968;37.490;-122.288;2022-11-15T09:26:02;10.13;;;6.10;;
29466;SDS011;60968;37.490;-122.288;2022-11-15T09:29:04;10.73;;;5.90;;
29466;SDS011;60968;37.490;-122.288;2022-11-15T09:32:05;11.70;;;6.27;;
29466;SDS011;60968;37.490;-122.288;2022-11-15T09:35:07;13.03;;;6.40;;
29466;SDS011;60968;37.490;-122.288;2022-11-15T09:38:08;13.30;;;6.40;;
29466;SDS011;60968;37.490;-122.288;2022-11-15T09:50:47;12.93;;;5.27;;
29466;SDS011;60968;37.490;-122.288;2022-11-15T09:54:01;8.97;;;5.47;;
29466;SDS011;60968;37.490;-122.288;2022-11-15T09:57:13;10.77;;;5.07;;
29466;SDS011;60968;37.490;-122.288;2022-11-15T10:00:38;11.33;;;5.83;;
29466;SDS011;60968;37.490;-122.288;2022-11-15T10:03:42;13.53;;;5.60;;
29466;SDS011;60968;37.490;-122.288;2022-11-15T10:06:49;10.87;;;6.17;;
29466;SDS011;60968;37.490;-122.288;2022-11-15T10:10:26;9.33;;;5.37;;
29466;SDS011;60968;37.490;-122.288;2022-11-15T10:13:43;11.33;;;6.03;;
29466;SDS011;60968;37.490;-122.288;2022-11-15T10:17:01;11.60;;;5.43;;
29466;SDS011;60968;37.490;-122.288;2022-11-15T10:23:21;10.27;;;6.00;;
29466;SDS011;60968;37.490;-122.288;2022-11-15T10:26:23;12.23;;;5.67;;
29466;SDS011;60968;37.490;-122.288;2022-11-15T10:29:24;10.80;;;5.30;;
29466;SDS011;60968;37.490;-122.288;2022-11-15T10:32:25;9.97;;;5.17;;
29466;SDS011;60968;37.490;-122.288;2022-11-15T10:35:28;9.40;;;5.20;;
29466;SDS011;60968;37.490;-122.288;2022-11-15T10:38:30;8.93;;;5.50;;
29466;SDS011;60968;37.490;-122.288;2022-11-15T10:41:32;12.40;;;5.37;;
29466;SDS011;60968;37.490;-122.288;2022-11-15T10:44:41;8.30;;;5.20;;
29466;SDS011;60968;37.490;-122.288;2022-11-15T10:47:43;7.57;;;4.57;;
29466;SDS011;60968;37.490;-122.288;2022-11-15T10:50:45;9.47;;;5.00;;
29466;SDS011;60968;37.490;-122.288;2022-11-15T10:53:47;7.50;;;4.77;;
29466;SDS011;60968;37.490;-122.288;2022-11-15T10:56:50;11.13;;;4.87;;
29466;SDS011;60968;37.490;-122.288;2022-11-15T11:00:12;7.40;;;4.63;;
29466;SDS011;60968;37.490;-122.288;2022-11-15T11:03:35;9.23;;;4.90;;
29466;SDS011;60968;37.490;-122.288;2022-11-15T11:06:50;7.73;;;4.50;;
29466;SDS011;60968;37.490;-122.288;2022-11-15T11:10:01;12.33;;;5.40;;
29466;SDS011;60968;37.490;-122.288;2022-11-15T11:13:23;10.43;;;5.20;;
29466;SDS011;60968;37.490;-122.288;2022-11-15T11:20:10;9.43;;;4.83;;
29466;SDS011;60968;37.490;-122.288;2022-11-15T11:27:35;11.47;;;4.83;;
29466;SDS011;60968;37.490;-122.288;2022-11-15T11:33:33;10.13;;;5.83;;
29466;SDS011;60968;37.490;-122.288;2022-11-15T11:43:36;8.57;;;5.03;;
29466;SDS011;60968;37.490;-122.288;2022-11-15T11:46:55;9.97;;;5.30;;
29466;SDS011;60968;37.490;-122.288;2022-11-15T11:50:17;10.93;;;5.90;;
29466;SDS011;60968;37.490;-122.288;2022-11-15T11:53:31;10.10;;;6.03;;
29466;SDS011;60968;37.490;-122.288;2022-11-15T11:56:56;8.93;;;5.57;;
29466;SDS011;60968;37.490;-122.288;2022-11-15T12:00:20;12.50;;;5.63;;
29466;SDS011;60968;37.490;-122.288;2022-11-15T12:03:39;7.30;;;4.47;;
29466;SDS011;60968;37.490;-122.288;2022-11-15T12:09:58;8.20;;;4.17;;
29466;SDS011;60968;37.490;-122.288;2022-11-15T12:13:02;6.87;;;4.13;;
29466;SDS011;60968;37.490;-122.288;2022-11-15T12:19:29;7.90;;;4.70;;
29466;SDS011;60968;37.490;-122.288;2022-11-15T12:25:57;7.77;;;4.70;;
29466;SDS011;60968;37.490;-122.288;2022-11-15T12:29:40;9.80;;;5.17;;
29466;SDS011;60968;37.490;-122.288;2022-11-15T12:36:03;13.37;;;5.47;;
29466;SDS011;60968;37.490;-122.288;2022-11-15T12:40:25;7.00;;;4.50;;
29466;SDS011;60968;37.490;-122.288;2022-11-15T12:52:30;14.07;;;6.37;;
29466;SDS011;60968;37.490;-122.288;2022-11-15T12:55:31;11.13;;;5.13;;
29466;SDS011;60968;37.490;-122.288;2022-11-15T12:58:43;9.27;;;5.57;;
29466;SDS011;60968;37.490;-122.288;2022-11-15T13:01:58;9.40;;;6.27;;
29466;SDS011;60968;37.490;-122.288;2022-11-15T13:08:40;12.53;;;6.80;;
29466;SDS011;60968;37.490;-122.288;2022-11-15T13:11:43;13.47;;;6.53;;
29466;SDS011;60968;37.490;-122.288;2022-11-15T13:14:57;9.60;;;6.13;;
29466;SDS011;60968;37.490;-122.288;2022-11-15T13:18:23;13.20;;;6.83;;
29466;SDS011;60968;37.490;-122.288;2022-11-15T13:21:32;12.40;;;6.97;;
29466;SDS011;60968;37.490;-122.288;2022-11-15T13:24:33;10.63;;;7.27;;
29466;SDS011;60968;37.490;-122.288;2022-11-15T13:27:38;12.73;;;7.13;;
29466;SDS011;60968;37.490;-122.288;2022-11-15T13:33:47;9.43;;;5.63;;
29466;SDS011;60968;37.490;-122.288;2022-11-15T13:36:48;10.40;;;5.77;;
29466;SDS011;60968;37.490;-122.288;2022-11-15T13:39:51;10.50;;;5.50;;
29466;SDS011;60968;37.490;-122.288;2022-11-15T13:42:51;12.20;;;5.97;;
29466;SDS011;60968;37.490;-122.288;2022-11-15T13:49:19;8.17;;;5.53;;
29466;SDS011;60968;37.490;-122.288;2022-11-15T13:52:33;6.53;;;4.40;;
29466;SDS011;60968;37.490;-122.288;2022-11-15T13:55:37;5.93;;;3.67;;
29466;SDS011;60968;37.490;-122.288;2022-11-15T13:58:38;5.20;;;3.23;;
29466;SDS011;60968;37.490;-122.288;2022-11-15T14:01:41;6.60;;;3.17;;
29466;SDS011;60968;37.490;-122.288;2022-11-15T14:04:54;10.83;;;5.27;;
29466;SDS011;60968;37.490;-122.288;2022-11-15T14:07:59;10.67;;;5.80;;
29466;SDS011;60968;37.490;-122.288;2022-11-15T14:11:17;9.33;;;5.13;;
29466;SDS011;60968;37.490;-122.288;2022-11-15T14:14:20;12.53;;;5.13;;
29466;SDS011;60968;37.490;-122.288;2022-11-15T14:20:33;7.90;;;4.67;;
29466;SDS011;60968;37.490;-122.288;2022-11-15T14:23:52;5.27;;;3.93;;
29466;SDS011;60968;37.490;-122.288;2022-11-15T14:27:24;6.70;;;4.20;;
29466;SDS011;60968;37.490;-122.288;2022-11-15T14:30:26;7.03;;;4.17;;
29466;SDS011;60968;37.490;-122.288;2022-11-15T14:33:37;7.43;;;3.80;;
29466;SDS011;60968;37.490;-122.288;2022-11-15T14:36:37;6.17;;;3.33;;
29466;SDS011;60968;37.490;-122.288;2022-11-15T14:39:38;5.33;;;3.00;;
29466;SDS011;60968;37.490;-122.288;2022-11-15T14:42:39;5.87;;;3.07;;
29466;SDS011;60968;37.490;-122.288;2022-11-15T14:45:41;6.40;;;2.80;;
29466;SDS011;60968;37.490;-122.288;2022-11-15T14:48:43;4.33;;;2.30;;
29466;SDS011;60968;37.490;-122.288;2022-11-15T14:51:44;4.67;;;2.50;;
29466;SDS011;60968;37.490;-122.288;2022-11-15T14:54:44;3.67;;;2.37;;
29466;SDS011;60968;37.490;-122.288;2022-11-15T14:57:47;3.97;;;2.37;;
29466;SDS011;60968;37.490;-122.288;2022-11-15T15:00:47;3.20;;;1.90;;
29466;SDS011;60968;37.490;-122.288;2022-11-15T15:03:48;2.50;;;1.83;;
29466;SDS011;60968;37.490;-122.288;2022-11-15T15:06:50;4.50;;;2.30;;
29466;SDS011;60968;37.490;-122.288;2022-11-15T15:09:52;3.90;;;2.10;;
29466;SDS011;60968;37.490;-122.288;2022-11-15T15:12:53;4.40;;;2.23;;
29466;SDS011;60968;37.490;-122.288;2022-11-15T15:15:53;3.47;;;2.30;;
29466;SDS011;60968;37.490;-122.288;2022-11-15T15:18:54;5.13;;;2.20;;
29466;SDS011;60968;37.490;-122.288;2022-11-15T15:21:57;8.00;;;2.33;;
29466;SDS011;60968;37.490;-122.288;2022-11-15T15:25:18;4.37;;;2.40;;
29466;SDS011;60968;37.490;-122.288;2022-11-15T15:28:23;4.83;;;2.63;;
29466;SDS011;60968;37.490;-122.288;2022-11-15T15:31:24;7.43;;;2.70;;
29466;SDS011;60968;37.490;-122.288;2022-11-15T15:34:24;6.30;;;2.97;;
29466;SDS011;60968;37.490;-122.288;2022-11-15T15:37:25;3.00;;;2.07;;
29466;SDS011;60968;37.490;-122.288;2022-11-15T15:40:30;5.60;;;2.53;;
29466;SDS011;60968;37.490;-122.288;2022-11-15T15:43:32;3.70;;;2.07;;
29466;SDS011;60968;37.490;-122.288;2022-11-15T15:46:33;3.80;;;2.23;;
29466;SDS011;60968;37.490;-122.288;2022-11-15T15:49:34;3.23;;;2.10;;
29466;SDS011;60968;37.490;-122.288;2022-11-15T15:52:35;4.17;;;2.23;;
29466;SDS011;60968;37.490;-122.288;2022-11-15T15:55:36;4.70;;;2.40;;
29466;SDS011;60968;37.490;-122.288;2022-11-15T15:58:38;3.67;;;2.30;;
29466;SDS011;60968;37.490;-122.288;2022-11-15T16:01:39;4.77;;;2.13;;
29466;SDS011;60968;37.490;-122.288;2022-11-15T16:04:39;4.47;;;2.40;;
29466;SDS011;60968;37.490;-122.288;2022-11-15T16:07:41;3.43;;;2.27;;
29466;SDS011;60968;37.490;-122.288;2022-11-15T16:10:42;4.27;;;2.30;;
29466;SDS011;60968;37.490;-122.288;2022-11-15T16:13:44;6.07;;;2.63;;
29466;SDS011;60968;37.490;-122.288;2022-11-15T16:16:45;3.63;;;2.40;;
29466;SDS011;60968;37.490;-122.288;2022-11-15T16:19:46;3.97;;;2.60;;
29466;SDS011;60968;37.490;-122.288;2022-11-15T16:22:47;3.00;;;2.47;;
29466;SDS011;60968;37.490;-122.288;2022-11-15T16:25:49;2.63;;;2.30;;
29466;SDS011;60968;37.490;-122.288;2022-11-15T16:28:53;4.05;;;2.50;;
29466;SDS011;60968;37.490;-122.288;2022-11-15T16:31:55;3.05;;;2.47;;
29466;SDS011;60968;37.490;-122.288;2022-11-15T16:34:56;4.38;;;2.13;;
29466;SDS011;60968;37.490;-122.288;2022-11-15T16:37:57;10.02;;;2.90;;
29466;SDS011;60968;37.490;-122.288;2022-11-15T16:40:59;2.88;;;2.55;;
29466;SDS011;60968;37.490;-122.288;2022-11-15T16:44:00;4.43;;;3.10;;
29466;SDS011;60968;37.490;-122.288;2022-11-15T16:47:03;3.70;;;2.70;;
29466;SDS011;60968;37.490;-122.288;2022-11-15T16:50:04;5.30;;;2.78;;
29466;SDS011;60968;37.490;-122.288;2022-11-15T16:53:05;2.92;;;2.58;;
29466;SDS011;60968;37.490;-122.288;2022-11-15T16:59:28;2.92;;;2.58;;
29466;SDS011;60968;37.490;-122.288;2022-11-15T17:02:30;3.50;;;2.80;;
29466;SDS011;60968;37.490;-122.288;2022-11-15T17:05:31;3.25;;;2.22;;
29466;SDS011;60968;37.490;-122.288;2022-11-15T17:08:32;5.20;;;2.53;;
29466;SDS011;60968;37.490;-122.288;2022-11-15T17:11:34;3.63;;;2.53;;
29466;SDS011;60968;37.490;-122.288;2022-11-15T17:14:35;4.10;;;2.03;;
29466;SDS011;60968;37.490;-122.288;2022-11-15T17:17:36;3.93;;;2.20;;
29466;SDS011;60968;37.490;-122.288;2022-11-15T17:20:38;2.93;;;1.93;;
29466;SDS011;60968;37.490;-122.288;2022-11-15T17:23:40;2.37;;;1.73;;
29466;SDS011;60968;37.490;-122.288;2022-11-15T17:26:41;2.63;;;2.07;;
29466;SDS011;60968;37.490;-122.288;2022-11-15T17:29:42;3.03;;;2.10;;
29466;SDS011;60968;37.490;-122.288;2022-11-15T17:32:43;3.20;;;1.90;;
29466;SDS011;60968;37.490;-122.288;2022-11-15T17:35:45;3.30;;;1.83;;
29466;SDS011;60968;37.490;-122.288;2022-11-15T17:38:46;3.20;;;1.70;;
29466;SDS011;60968;37.490;-122.288;2022-11-15T17:41:47;4.50;;;2.20;;
29466;SDS011;60968;37.490;-122.288;2022-11-15T17:44:49;5.27;;;2.10;;
29466;SDS011;60968;37.490;-122.288;2022-11-15T17:47:49;4.00;;;1.67;;
29466;SDS011;60968;37.490;-122.288;2022-11-15T17:50:54;3.07;;;1.93;;
29466;SDS011;60968;37.490;-122.288;2022-11-15T17:53:56;5.87;;;1.90;;
29466;SDS011;60968;37.490;-122.288;2022-11-15T17:57:00;2.30;;;1.70;;
29466;SDS011;60968;37.490;-122.288;2022-11-15T18:00:02;4.60;;;2.40;;
29466;SDS011;60968;37.490;-122.288;2022-11-15T18:03:04;4.47;;;2.20;;
29466;SDS011;60968;37.490;-122.288;2022-11-15T18:06:06;3.30;;;1.50;;
29466;SDS011;60968;37.490;-122.288;2022-11-15T18:09:08;3.17;;;1.80;;
29466;SDS011;60968;37.490;-122.288;2022-11-15T18:12:09;2.87;;;1.57;;
29466;SDS011;60968;37.490;-122.288;2022-11-15T18:15:11;3.57;;;1.80;;
29466;SDS011;60968;37.490;-122.288;2022-11-15T18:18:14;2.57;;;1.57;;
29466;SDS011;60968;37.490;-122.288;2022-11-15T18:21:20;2.60;;;1.63;;
29466;SDS011;60968;37.490;-122.288;2022-11-15T18:24:32;6.30;;;2.00;;
29466;SDS011;60968;37.490;-122.288;2022-11-15T18:27:34;4.87;;;1.60;;
29466;SDS011;60968;37.490;-122.288;2022-11-15T18:30:37;4.23;;;1.83;;
29466;SDS011;60968;37.490;-122.288;2022-11-15T18:33:39;5.23;;;1.87;;
29466;SDS011;60968;37.490;-122.288;2022-11-15T18:36:42;2.27;;;1.50;;
29466;SDS011;60968;37.490;-122.288;2022-11-15T18:39:43;2.63;;;1.77;;
29466;SDS011;60968;37.490;-122.288;2022-11-15T18:42:45;2.03;;;1.70;;
29466;SDS011;60968;37.490;-122.288;2022-11-15T18:45:46;3.10;;;1.60;;
29466;SDS011;60968;37.490;-122.288;2022-11-15T18:48:48;2.97;;;1.80;;
29466;SDS011;60968;37.490;-122.288;2022-11-15T18:51:52;3.03;;;1.80;;
29466;SDS011;60968;37.490;-122.288;2022-11-15T18:54:53;7.17;;;2.00;;
29466;SDS011;60968;37.490;-122.288;2022-11-15T18:57:55;3.27;;;1.60;;
29466;SDS011;60968;37.490;-122.288;2022-11-15T19:01:00;3.10;;;1.37;;
29466;SDS011;60968;37.490;-122.288;2022-11-15T19:04:10;5.40;;;2.00;;
29466;SDS011;60968;37.490;-122.288;2022-11-15T19:07:12;2.10;;;1.70;;
29466;SDS011;60968;37.490;-122.288;2022-11-15T19:10:13;6.13;;;2.20;;
29466;SDS011;60968;37.490;-122.288;2022-11-15T19:13:15;4.93;;;2.03;;